createdAt,value
2023-05-10T00:01:14.407Z,7.38
2023-05-10T00:03:41.141Z,7.95
2023-05-10T00:06:07.925Z,6.65
2023-05-10T00:08:34.560Z,6.72
2023-05-10T00:11:02.826Z,5.60
2023-05-10T00:13:29.453Z,5.55
2023-05-10T00:15:56.102Z,7.20
2023-05-10T00:18:22.879Z,6.25
2023-05-10T00:20:49.507Z,6.85
2023-05-10T00:23:16.245Z,7.87
2023-05-10T00:25:42.893Z,8.57
2023-05-10T00:28:10.989Z,10.10
2023-05-10T00:30:37.604Z,9.82
2023-05-10T00:33:04.390Z,10.10
2023-05-10T00:35:31.091Z,9.70
2023-05-10T00:37:58.020Z,12.60
2023-05-10T00:40:24.855Z,12.23
2023-05-10T00:42:51.471Z,11.80
2023-05-10T00:45:19.719Z,11.63
2023-05-10T00:47:46.691Z,12.83
2023-05-10T00:50:13.501Z,10.15
2023-05-10T00:52:40.639Z,9.70
2023-05-10T00:55:11.876Z,9.07
2023-05-10T00:57:38.594Z,9.20
2023-05-10T01:00:06.565Z,9.03
2023-05-10T01:02:35.638Z,7.43
2023-05-10T01:05:04.094Z,9.57
2023-05-10T01:07:30.991Z,8.23
2023-05-10T01:09:58.216Z,12.45
2023-05-10T01:12:24.949Z,8.10
2023-05-10T01:14:51.649Z,8.70
2023-05-10T01:17:18.780Z,7.72
2023-05-10T01:19:46.875Z,9.13
2023-05-10T01:22:31.964Z,7.95
2023-05-10T01:25:30.851Z,9.60
2023-05-10T01:28:28.607Z,8.23
2023-05-10T01:31:28.329Z,8.55
2023-05-10T01:34:01.594Z,9.10
2023-05-10T01:36:31.919Z,10.23
2023-05-10T01:39:03.303Z,8.60
2023-05-10T01:41:41.198Z,10.68
2023-05-10T01:44:16.831Z,8.07
2023-05-10T01:46:43.742Z,9.93
2023-05-10T01:49:26.322Z,10.80
2023-05-10T01:51:58.002Z,9.87
2023-05-10T01:54:25.655Z,9.70
2023-05-10T01:56:59.952Z,9.20
2023-05-10T01:59:31.167Z,9.13
2023-05-10T02:01:59.709Z,11.45
2023-05-10T02:04:28.604Z,9.93
2023-05-10T02:06:56.929Z,10.02
2023-05-10T02:09:26.096Z,10.68
2023-05-10T02:11:54.552Z,11.77
2023-05-10T02:14:21.931Z,9.95
2023-05-10T02:16:51.394Z,9.50
2023-05-10T02:19:20.751Z,10.43
2023-05-10T02:21:50.004Z,9.18
2023-05-10T02:24:17.209Z,11.55
2023-05-10T02:26:46.179Z,10.30
2023-05-10T02:29:14.998Z,12.17
2023-05-10T02:31:42.296Z,12.82
2023-05-10T02:34:11.072Z,11.68
2023-05-10T02:36:39.284Z,13.27
2023-05-10T02:39:08.716Z,11.88
2023-05-10T02:41:35.878Z,12.30
2023-05-10T02:44:04.008Z,13.55
2023-05-10T02:46:31.289Z,13.63
2023-05-10T02:48:58.027Z,14.90
2023-05-10T02:51:26.506Z,15.35
2023-05-10T02:53:56.109Z,11.77
2023-05-10T02:56:29.840Z,12.80
2023-05-10T02:58:56.607Z,13.88
2023-05-10T03:01:23.346Z,14.05
2023-05-10T03:03:50.031Z,14.82
2023-05-10T03:06:16.726Z,16.23
2023-05-10T03:08:44.018Z,15.55
2023-05-10T03:11:23.613Z,16.83
2023-05-10T03:14:11.009Z,15.85
2023-05-10T03:16:45.025Z,18.27
2023-05-10T03:19:18.667Z,18.47
2023-05-10T03:21:51.213Z,17.75
2023-05-10T03:24:21.192Z,17.02
2023-05-10T03:26:49.439Z,16.10
2023-05-10T03:29:18.524Z,15.40
2023-05-10T03:31:45.468Z,15.23
2023-05-10T03:34:12.159Z,16.95
2023-05-10T03:36:38.836Z,16.83
2023-05-10T03:39:05.569Z,17.65
2023-05-10T03:41:32.159Z,17.40
2023-05-10T03:43:58.840Z,14.90
2023-05-10T03:46:26.995Z,19.35
2023-05-10T03:48:53.799Z,14.60
2023-05-10T03:51:20.633Z,14.80
2023-05-10T03:53:47.574Z,11.82
2023-05-10T03:56:14.198Z,9.03
2023-05-10T03:58:40.820Z,8.45
2023-05-10T04:01:07.409Z,7.13
2023-05-10T04:03:35.900Z,5.55
2023-05-10T04:06:03.838Z,5.10
2023-05-10T04:08:30.560Z,5.47
2023-05-10T04:11:06.083Z,5.63
2023-05-10T04:13:32.700Z,3.75
2023-05-10T04:15:59.280Z,4.05
2023-05-10T04:18:25.936Z,2.97
2023-05-10T04:20:54.028Z,2.50
2023-05-10T04:23:20.730Z,4.22
2023-05-10T04:25:47.330Z,2.50
2023-05-10T04:28:14.062Z,3.05
2023-05-10T04:30:40.754Z,3.05
2023-05-10T04:33:07.455Z,2.33
2023-05-10T04:35:34.170Z,2.38
2023-05-10T04:38:02.205Z,2.15
2023-05-10T04:40:28.840Z,1.60
2023-05-10T04:42:55.494Z,2.72
2023-05-10T04:45:22.242Z,2.87
2023-05-10T04:47:48.969Z,2.80
2023-05-10T04:50:16.017Z,2.50
2023-05-10T04:52:42.898Z,2.83
2023-05-10T04:55:11.130Z,2.85
2023-05-10T04:57:37.819Z,3.97
2023-05-10T05:00:05.476Z,4.95
2023-05-10T05:02:32.253Z,4.10
2023-05-10T05:04:59.017Z,3.10
2023-05-10T05:07:25.798Z,2.85
2023-05-10T05:09:52.444Z,2.40
2023-05-10T05:12:20.448Z,2.22
2023-05-10T05:14:47.067Z,2.00
2023-05-10T05:17:13.757Z,3.60
2023-05-10T05:19:40.334Z,2.40
2023-05-10T05:22:07.781Z,2.47
2023-05-10T05:24:36.447Z,2.38
2023-05-10T05:27:03.169Z,3.88
2023-05-10T05:29:31.173Z,3.95
2023-05-10T05:31:57.953Z,2.88
2023-05-10T05:34:24.747Z,4.97
2023-05-10T05:36:51.457Z,2.47
2023-05-10T05:39:18.132Z,3.05
2023-05-10T05:41:44.761Z,2.17
2023-05-10T05:44:11.340Z,2.53
2023-05-10T05:46:39.480Z,1.77
2023-05-10T05:49:06.104Z,2.05
2023-05-10T05:51:32.730Z,2.05
2023-05-10T05:53:59.364Z,2.55
2023-05-10T05:56:26.066Z,2.17
2023-05-10T05:58:52.795Z,2.50
2023-05-10T06:01:19.641Z,2.58
2023-05-10T06:03:48.191Z,2.05
2023-05-10T06:06:15.620Z,2.33
2023-05-10T06:08:42.231Z,2.13
2023-05-10T06:11:08.904Z,1.87
2023-05-10T06:13:35.594Z,1.27
2023-05-10T06:16:03.037Z,1.45
2023-05-10T06:18:29.714Z,1.92
2023-05-10T06:20:57.791Z,2.42
2023-05-10T06:23:24.529Z,1.50
2023-05-10T06:25:51.172Z,2.70
2023-05-10T06:28:17.787Z,1.23
2023-05-10T06:30:44.748Z,2.63
2023-05-10T06:33:11.434Z,1.40
2023-05-10T06:35:38.114Z,0.90
2023-05-10T06:38:06.237Z,1.45
2023-05-10T06:40:32.843Z,3.03
2023-05-10T06:42:59.536Z,1.10
2023-05-10T06:45:26.217Z,1.70
2023-05-10T06:47:52.893Z,4.30
2023-05-10T06:50:19.594Z,1.20
2023-05-10T06:52:46.530Z,1.48
2023-05-10T06:55:14.728Z,1.30
2023-05-10T06:57:41.563Z,2.10
2023-05-10T07:00:09.148Z,2.17
2023-05-10T07:02:35.852Z,1.42
2023-05-10T07:05:03.551Z,1.95
2023-05-10T07:07:30.436Z,1.63
2023-05-10T07:09:57.068Z,1.63
2023-05-10T07:12:25.272Z,1.60
2023-05-10T07:14:51.975Z,1.95
2023-05-10T07:17:18.736Z,1.60
2023-05-10T07:19:45.613Z,3.30
2023-05-10T07:22:12.455Z,2.05
2023-05-10T07:24:39.209Z,1.50
2023-05-10T07:27:05.834Z,1.10
2023-05-10T07:29:33.963Z,1.90
2023-05-10T07:32:00.751Z,1.63
2023-05-10T07:34:27.494Z,2.25
2023-05-10T07:36:54.211Z,1.67
2023-05-10T07:39:26.579Z,1.92
2023-05-10T07:41:53.987Z,1.40
2023-05-10T07:44:20.732Z,1.38
2023-05-10T07:46:49.005Z,1.45
2023-05-10T07:49:15.721Z,3.30
2023-05-10T07:51:42.417Z,1.40
2023-05-10T07:54:09.103Z,1.40
2023-05-10T07:56:35.715Z,1.08
2023-05-10T07:59:03.434Z,1.23
2023-05-10T08:01:32.119Z,1.77
2023-05-10T08:04:00.433Z,2.20
2023-05-10T08:06:27.238Z,2.08
2023-05-10T08:08:53.942Z,2.13
2023-05-10T08:11:21.182Z,2.65
2023-05-10T08:13:48.972Z,2.80
2023-05-10T08:16:16.273Z,1.88
2023-05-10T08:18:42.953Z,2.42
2023-05-10T08:21:10.947Z,2.88
2023-05-10T08:23:37.909Z,1.40
2023-05-10T08:26:04.774Z,1.80
2023-05-10T08:28:31.469Z,1.50
2023-05-10T08:30:58.084Z,3.15
2023-05-10T08:33:24.763Z,1.48
2023-05-10T08:35:51.439Z,1.95
2023-05-10T08:38:19.605Z,3.30
2023-05-10T08:40:46.270Z,2.92
2023-05-10T08:43:14.258Z,1.70
2023-05-10T08:45:42.288Z,1.20
2023-05-10T08:48:10.378Z,1.88
2023-05-10T08:50:37.554Z,1.40
2023-05-10T08:53:07.569Z,2.30
2023-05-10T08:55:36.028Z,2.03
2023-05-10T08:58:02.945Z,3.60
2023-05-10T09:00:29.891Z,3.53
2023-05-10T09:02:57.787Z,1.90
2023-05-10T09:05:24.592Z,2.08
2023-05-10T09:07:51.374Z,1.80
2023-05-10T09:10:18.773Z,2.53
2023-05-10T09:12:47.541Z,3.80
2023-05-10T09:15:16.944Z,2.40
2023-05-10T09:17:45.418Z,2.38
2023-05-10T09:20:12.266Z,3.65
2023-05-10T09:22:39.073Z,4.57
2023-05-10T09:25:07.687Z,4.10
2023-05-10T09:27:34.498Z,3.40
2023-05-10T09:30:02.613Z,3.28
2023-05-10T09:32:39.483Z,2.58
2023-05-10T09:35:10.222Z,2.63
2023-05-10T09:37:37.082Z,4.75
2023-05-10T09:40:06.442Z,2.77
2023-05-10T09:42:33.233Z,2.45
2023-05-10T09:45:04.035Z,3.97
2023-05-10T09:47:33.143Z,2.40
2023-05-10T09:50:00.014Z,2.75
2023-05-10T09:52:26.698Z,2.70
2023-05-10T09:54:54.788Z,2.30
2023-05-10T09:57:22.377Z,2.58
2023-05-10T09:59:49.750Z,3.60
2023-05-10T10:02:18.162Z,2.50
2023-05-10T10:04:44.865Z,2.67
2023-05-10T10:07:11.573Z,2.75
2023-05-10T10:09:39.302Z,2.42
2023-05-10T10:12:06.552Z,2.42
2023-05-10T10:14:33.516Z,3.05
2023-05-10T10:19:34.033Z,2.15
2023-05-10T10:22:01.429Z,2.22
2023-05-10T10:24:28.119Z,2.00
2023-05-10T10:27:01.069Z,4.18
2023-05-10T10:29:38.883Z,3.87
2023-05-10T10:32:13.043Z,4.00
2023-05-10T10:34:41.419Z,2.05
2023-05-10T10:37:08.081Z,2.20
2023-05-10T10:39:34.774Z,1.92
2023-05-10T10:42:01.509Z,2.67
2023-05-10T10:44:36.539Z,2.95
2023-05-10T10:47:19.266Z,3.85
2023-05-10T10:49:52.844Z,1.70
2023-05-10T10:52:24.949Z,1.80
2023-05-10T10:54:54.697Z,4.53
2023-05-10T10:57:22.495Z,2.92
2023-05-10T10:59:49.427Z,3.05
2023-05-10T11:02:34.637Z,3.45
2023-05-10T11:05:36.268Z,3.28
2023-05-10T11:08:10.048Z,1.97
2023-05-10T11:10:36.858Z,1.95
2023-05-10T11:13:04.729Z,2.20
2023-05-10T11:15:32.384Z,3.00
2023-05-10T11:17:59.192Z,2.05
2023-05-10T11:20:30.073Z,2.47
2023-05-10T11:22:56.734Z,2.92
2023-05-10T11:25:27.953Z,2.95
2023-05-10T11:27:55.067Z,2.47
2023-05-10T11:30:22.039Z,3.22
2023-05-10T11:32:49.125Z,2.53
2023-05-10T11:35:15.780Z,4.55
2023-05-10T11:37:49.171Z,4.40
2023-05-10T11:40:16.142Z,2.30
2023-05-10T11:42:43.050Z,2.35
2023-05-10T11:45:10.557Z,3.30
2023-05-10T11:47:37.310Z,2.50
2023-05-10T11:50:04.633Z,2.30
2023-05-10T11:52:36.636Z,2.63
2023-05-10T11:55:05.421Z,2.25
2023-05-10T11:57:32.120Z,2.23
2023-05-10T11:59:59.149Z,2.95
2023-05-10T12:02:26.169Z,3.50
2023-05-10T12:04:53.258Z,2.22
2023-05-10T12:07:20.094Z,2.25
2023-05-10T12:10:05.769Z,3.70
2023-05-10T12:12:39.933Z,2.22
2023-05-10T12:15:11.180Z,2.75
2023-05-10T12:17:40.262Z,2.22
2023-05-10T12:20:16.044Z,1.92
2023-05-10T12:22:45.598Z,2.60
2023-05-10T12:25:13.673Z,3.22
2023-05-10T12:27:40.331Z,1.92
2023-05-10T12:30:08.451Z,2.83
2023-05-10T12:32:39.161Z,3.45
2023-05-10T12:35:07.154Z,4.27
2023-05-10T12:37:33.752Z,4.03
2023-05-10T12:40:00.399Z,2.50
2023-05-10T12:42:28.410Z,2.92
2023-05-10T12:44:56.615Z,3.25
2023-05-10T12:47:23.318Z,2.17
2023-05-10T12:49:49.925Z,3.03
2023-05-10T12:52:16.578Z,2.05
2023-05-10T12:54:43.269Z,1.52
2023-05-10T12:57:09.985Z,3.58
2023-05-10T12:59:38.491Z,4.43
2023-05-10T13:02:05.125Z,2.40
2023-05-10T13:04:31.728Z,2.35
2023-05-10T13:06:58.480Z,2.13
2023-05-10T13:09:25.178Z,2.65
2023-05-10T13:11:51.928Z,2.73
2023-05-10T13:14:18.553Z,1.90
2023-05-10T13:16:46.682Z,2.35
2023-05-10T13:19:13.885Z,1.92
2023-05-10T13:21:40.648Z,1.73
2023-05-10T13:24:07.655Z,2.37
2023-05-10T13:26:34.625Z,2.03
2023-05-10T13:29:01.245Z,2.85
2023-05-10T13:31:28.023Z,2.10
2023-05-10T13:33:56.904Z,2.35
2023-05-10T13:36:23.509Z,2.40
2023-05-10T13:38:50.113Z,4.65
2023-05-10T13:41:16.760Z,2.15
2023-05-10T13:43:43.459Z,2.63
2023-05-10T13:46:10.196Z,2.97
2023-05-10T13:48:38.727Z,2.47
2023-05-10T13:51:07.147Z,4.57
2023-05-10T13:53:33.731Z,3.33
2023-05-10T13:56:00.373Z,2.75
2023-05-10T13:58:26.927Z,4.13
2023-05-10T14:00:53.580Z,3.03
2023-05-10T14:03:20.304Z,3.72
2023-05-10T14:05:47.132Z,3.70
2023-05-10T14:08:15.136Z,3.20
2023-05-10T14:10:41.837Z,3.22
2023-05-10T14:13:08.518Z,2.57
2023-05-10T14:15:35.330Z,2.97
2023-05-10T14:18:02.125Z,1.45
2023-05-10T14:20:28.971Z,3.28
2023-05-10T14:22:55.600Z,4.25
2023-05-10T14:25:24.216Z,2.73
2023-05-10T14:27:50.814Z,2.83
2023-05-10T14:30:17.632Z,3.28
2023-05-10T14:32:44.353Z,3.13
2023-05-10T14:35:13.130Z,1.90
2023-05-10T14:37:40.223Z,2.80
2023-05-10T14:40:08.032Z,3.72
2023-05-10T14:42:36.075Z,2.92
2023-05-10T14:45:03.006Z,2.53
2023-05-10T14:47:29.614Z,2.65
2023-05-10T14:49:56.315Z,3.63
2023-05-10T14:52:23.006Z,3.80
2023-05-10T14:54:49.638Z,2.88
2023-05-10T14:57:16.292Z,3.78
2023-05-10T14:59:44.308Z,3.28
2023-05-10T15:02:11.513Z,3.30
2023-05-10T15:04:38.815Z,2.17
2023-05-10T15:07:05.960Z,2.63
2023-05-10T15:09:33.101Z,2.67
2023-05-10T15:11:59.734Z,2.72
2023-05-10T15:14:26.408Z,3.50
2023-05-10T15:16:54.363Z,3.05
2023-05-10T15:19:21.116Z,1.88
2023-05-10T15:21:47.779Z,2.80
2023-05-10T15:24:14.433Z,1.73
2023-05-10T15:26:41.160Z,2.80
2023-05-10T15:29:07.875Z,3.70
2023-05-10T15:31:34.526Z,3.47
2023-05-10T15:34:02.612Z,3.22
2023-05-10T15:36:29.254Z,3.28
2023-05-10T15:38:55.916Z,1.87
2023-05-10T15:41:22.629Z,1.20
2023-05-10T15:43:49.313Z,1.70
2023-05-10T15:46:15.952Z,2.20
2023-05-10T15:48:42.557Z,1.67
2023-05-10T15:51:10.613Z,3.20
2023-05-10T15:53:37.235Z,1.83
2023-05-10T15:56:04.162Z,3.15
2023-05-10T15:58:30.853Z,3.50
2023-05-10T16:00:57.568Z,2.55
2023-05-10T16:03:24.265Z,3.10
2023-05-10T16:05:50.962Z,2.80
2023-05-10T16:08:19.065Z,2.08
2023-05-10T16:10:45.755Z,3.08
2023-05-10T16:13:12.394Z,2.88
2023-05-10T16:15:38.994Z,5.83
2023-05-10T16:18:06.106Z,2.30
2023-05-10T16:20:32.969Z,2.10
2023-05-10T16:23:04.182Z,1.88
2023-05-10T16:25:32.803Z,3.03
2023-05-10T16:27:59.861Z,5.17
2023-05-10T16:30:27.071Z,2.30
2023-05-10T16:32:53.904Z,3.92
2023-05-10T16:35:20.765Z,3.65
2023-05-10T16:37:47.403Z,3.92
2023-05-10T16:40:14.424Z,2.13
2023-05-10T16:42:42.545Z,1.88
2023-05-10T16:45:09.709Z,5.75
2023-05-10T16:47:37.416Z,3.22
2023-05-10T16:50:05.662Z,4.15
2023-05-10T16:52:32.781Z,2.47
2023-05-10T16:54:59.445Z,2.35
2023-05-10T16:57:26.264Z,4.43
2023-05-10T16:59:54.472Z,3.22
2023-05-10T17:02:21.282Z,2.38
2023-05-10T17:04:48.092Z,2.60
2023-05-10T17:07:15.077Z,2.90
2023-05-10T17:09:42.631Z,3.15
2023-05-10T17:12:09.235Z,1.55
2023-05-10T17:14:36.923Z,8.90
2023-05-10T17:17:04.899Z,3.23
2023-05-10T17:19:31.546Z,6.07
2023-05-10T17:21:58.222Z,5.03
2023-05-10T17:24:24.886Z,2.42
2023-05-10T17:26:51.536Z,1.67
2023-05-10T17:29:18.168Z,1.93
2023-05-10T17:31:44.847Z,1.95
2023-05-10T17:34:12.867Z,2.17
2023-05-10T17:36:39.535Z,3.60
2023-05-10T17:39:06.117Z,2.63
2023-05-10T17:41:32.693Z,2.13
2023-05-10T17:43:59.308Z,2.65
2023-05-10T17:46:26.053Z,3.13
2023-05-10T17:48:52.727Z,3.17
2023-05-10T17:51:20.706Z,2.95
2023-05-10T17:53:47.335Z,2.43
2023-05-10T17:56:13.923Z,4.47
2023-05-10T17:58:40.786Z,4.70
2023-05-10T18:01:07.825Z,4.57
2023-05-10T18:03:34.492Z,3.60
2023-05-10T18:06:01.277Z,4.10
2023-05-10T18:08:29.317Z,4.78
2023-05-10T18:10:55.951Z,4.18
2023-05-10T18:13:22.647Z,3.50
2023-05-10T18:15:49.326Z,5.38
2023-05-10T18:18:16.593Z,4.47
2023-05-10T18:20:43.237Z,5.30
2023-05-10T18:23:10.040Z,4.97
2023-05-10T18:25:38.128Z,3.67
2023-05-10T18:28:05.029Z,4.20
2023-05-10T18:30:31.626Z,4.97
2023-05-10T18:32:58.608Z,7.93
2023-05-10T18:35:25.205Z,4.70
2023-05-10T18:37:52.367Z,6.03
2023-05-10T18:40:19.223Z,7.97
2023-05-10T18:42:47.304Z,4.80
2023-05-10T18:45:14.617Z,6.07
2023-05-10T18:47:41.387Z,4.55
2023-05-10T18:50:08.692Z,8.10
2023-05-10T18:52:35.508Z,5.78
2023-05-10T18:55:02.148Z,6.40
2023-05-10T18:57:28.740Z,7.43
2023-05-10T18:59:56.815Z,7.72
2023-05-10T19:02:23.467Z,8.07
2023-05-10T19:04:50.188Z,7.40
2023-05-10T19:07:16.850Z,7.37
2023-05-10T19:09:43.590Z,8.15
2023-05-10T19:12:10.228Z,7.07
2023-05-10T19:14:37.199Z,7.28
2023-05-10T19:17:05.334Z,8.27
2023-05-10T19:19:32.905Z,12.60
2023-05-10T19:21:59.621Z,11.98
2023-05-10T19:24:26.381Z,11.75
2023-05-10T19:26:52.975Z,10.20
2023-05-10T19:29:19.634Z,7.05
2023-05-10T19:31:46.478Z,8.73
2023-05-10T19:34:15.092Z,8.38
2023-05-10T19:36:41.748Z,9.05
2023-05-10T19:39:08.392Z,8.13
2023-05-10T19:41:34.968Z,8.48
2023-05-10T19:44:01.630Z,6.63
2023-05-10T19:46:28.306Z,6.60
2023-05-10T19:48:55.066Z,5.28
2023-05-10T19:51:23.207Z,4.72
2023-05-10T19:53:49.865Z,4.95
2023-05-10T19:56:16.513Z,5.07
2023-05-10T19:58:45.262Z,5.63
2023-05-10T20:01:11.961Z,6.47
2023-05-10T20:03:38.706Z,5.47
2023-05-10T20:06:05.647Z,6.93
2023-05-10T20:08:33.582Z,9.33
2023-05-10T20:11:00.191Z,8.82
2023-05-10T20:13:26.793Z,9.73
2023-05-10T20:15:55.904Z,7.18
2023-05-10T20:18:22.666Z,7.55
2023-05-10T20:20:53.399Z,5.77
2023-05-10T20:23:20.200Z,8.07
2023-05-10T20:25:48.251Z,5.05
2023-05-10T20:28:14.978Z,5.13
2023-05-10T20:30:41.687Z,6.18
2023-05-10T20:33:08.382Z,5.80
2023-05-10T20:35:35.147Z,4.72
2023-05-10T20:38:01.805Z,6.07
2023-05-10T20:40:28.490Z,6.07
2023-05-10T20:42:56.474Z,5.93
2023-05-10T20:45:23.113Z,5.87
2023-05-10T20:47:49.780Z,6.03
2023-05-10T20:50:16.682Z,6.10
2023-05-10T20:52:43.601Z,6.75
2023-05-10T20:55:10.333Z,5.78
2023-05-10T20:57:37.021Z,8.57
2023-05-10T21:00:06.266Z,9.13
2023-05-10T21:02:33.003Z,7.93
2023-05-10T21:04:59.935Z,7.97
2023-05-10T21:07:26.694Z,7.35
2023-05-10T21:09:53.383Z,8.43
2023-05-10T21:12:20.090Z,10.38
2023-05-10T21:14:46.720Z,8.38
2023-05-10T21:17:14.786Z,6.95
2023-05-10T21:19:41.414Z,7.90
2023-05-10T21:22:08.101Z,6.03
2023-05-10T21:24:34.768Z,6.82
2023-05-10T21:27:01.444Z,8.18
2023-05-10T21:29:28.193Z,7.28
2023-05-10T21:31:54.833Z,7.07
2023-05-10T21:34:22.968Z,7.63
2023-05-10T21:36:49.617Z,7.57
2023-05-10T21:39:16.244Z,9.45
2023-05-10T21:41:42.885Z,7.45
2023-05-10T21:44:09.544Z,8.95
2023-05-10T21:46:36.254Z,8.17
2023-05-10T21:49:03.191Z,9.63
2023-05-10T21:51:31.240Z,8.40
2023-05-10T21:53:57.895Z,10.45
2023-05-10T21:56:24.899Z,8.63
2023-05-10T21:58:51.517Z,8.43
2023-05-10T22:01:18.346Z,11.07
2023-05-10T22:03:45.446Z,11.98
2023-05-10T22:06:12.246Z,11.93
2023-05-10T22:08:40.806Z,10.05
2023-05-10T22:11:07.350Z,8.43
2023-05-10T22:13:34.156Z,10.10
2023-05-10T22:16:00.777Z,9.95
2023-05-10T22:18:27.504Z,8.70
2023-05-10T22:20:54.204Z,12.10
2023-05-10T22:23:20.872Z,12.10
2023-05-10T22:25:48.908Z,16.73
2023-05-10T22:28:15.556Z,13.60
2023-05-10T22:30:42.486Z,12.73
2023-05-10T22:33:09.233Z,13.07
2023-05-10T22:35:35.985Z,13.20
2023-05-10T22:38:03.209Z,14.95
2023-05-10T22:40:29.806Z,14.93
2023-05-10T22:42:57.795Z,10.00
2023-05-10T22:45:25.239Z,9.77
2023-05-10T22:47:52.030Z,10.83
2023-05-10T22:50:19.377Z,12.05
2023-05-10T22:52:46.263Z,10.45
2023-05-10T22:55:12.870Z,10.75
2023-05-10T22:57:39.626Z,10.05
2023-05-10T23:00:08.929Z,11.53
2023-05-10T23:02:35.535Z,10.50
2023-05-10T23:05:02.232Z,10.75
2023-05-10T23:07:28.918Z,9.90
2023-05-10T23:09:55.544Z,9.30
2023-05-10T23:12:22.200Z,9.57
2023-05-10T23:14:48.832Z,10.52
2023-05-10T23:17:17.016Z,10.95
2023-05-10T23:19:43.597Z,10.93
2023-05-10T23:22:10.251Z,11.15
2023-05-10T23:24:36.861Z,12.20
2023-05-10T23:27:03.497Z,11.32
2023-05-10T23:29:30.204Z,13.05
2023-05-10T23:31:56.861Z,12.82
2023-05-10T23:34:25.184Z,12.93
2023-05-10T23:36:51.781Z,12.00
2023-05-10T23:39:18.505Z,12.35
2023-05-10T23:41:45.203Z,13.95
2023-05-10T23:44:11.928Z,13.63
2023-05-10T23:46:38.506Z,11.85
2023-05-10T23:49:05.111Z,14.80
2023-05-10T23:51:33.117Z,12.77
2023-05-10T23:53:59.739Z,12.32
2023-05-10T23:56:26.362Z,13.95
2023-05-10T23:58:52.990Z,12.35
